sensor_id;sensor_type;location;lat;lon;timestamp;P1;durP1;ratioP1;P2;durP2;ratioP2
58878;SDS011;44660;42.664;23.266;2023-01-15T00:02:08;27.30;;;13.02;;
58878;SDS011;44660;42.664;23.266;2023-01-15T00:04:34;29.35;;;13.27;;
58878;SDS011;44660;42.664;23.266;2023-01-15T00:07:00;25.42;;;13.57;;
58878;SDS011;44660;42.664;23.266;2023-01-15T00:09:25;29.98;;;13.05;;
58878;SDS011;44660;42.664;23.266;2023-01-15T00:11:51;32.42;;;14.45;;
58878;SDS011;44660;42.664;23.266;2023-01-15T00:14:16;24.25;;;12.48;;
58878;SDS011;44660;42.664;23.266;2023-01-15T00:16:41;31.45;;;13.38;;
58878;SDS011;44660;42.664;23.266;2023-01-15T00:19:09;26.58;;;12.93;;
58878;SDS011;44660;42.664;23.266;2023-01-15T00:21:36;23.23;;;12.32;;
58878;SDS011;44660;42.664;23.266;2023-01-15T00:24:01;24.80;;;13.10;;
58878;SDS011;44660;42.664;23.266;2023-01-15T00:26:46;25.35;;;13.43;;
58878;SDS011;44660;42.664;23.266;2023-01-15T00:29:30;25.35;;;12.90;;
58878;SDS011;44660;42.664;23.266;2023-01-15T00:31:58;28.08;;;13.60;;
58878;SDS011;44660;42.664;23.266;2023-01-15T00:34:26;30.83;;;14.25;;
58878;SDS011;44660;42.664;23.266;2023-01-15T00:36:52;30.08;;;14.27;;
58878;SDS011;44660;42.664;23.266;2023-01-15T00:39:18;28.20;;;14.07;;
58878;SDS011;44660;42.664;23.266;2023-01-15T00:41:44;28.92;;;13.60;;
58878;SDS011;44660;42.664;23.266;2023-01-15T00:44:10;30.65;;;14.65;;
58878;SDS011;44660;42.664;23.266;2023-01-15T00:46:35;31.77;;;14.10;;
58878;SDS011;44660;42.664;23.266;2023-01-15T00:49:01;29.85;;;13.75;;
58878;SDS011;44660;42.664;23.266;2023-01-15T00:51:27;29.67;;;13.70;;
58878;SDS011;44660;42.664;23.266;2023-01-15T00:53:52;31.25;;;13.23;;
58878;SDS011;44660;42.664;23.266;2023-01-15T00:56:18;27.08;;;12.77;;
58878;SDS011;44660;42.664;23.266;2023-01-15T00:58:43;27.10;;;13.25;;
58878;SDS011;44660;42.664;23.266;2023-01-15T01:01:10;26.67;;;13.45;;
58878;SDS011;44660;42.664;23.266;2023-01-15T01:03:36;25.10;;;12.38;;
58878;SDS011;44660;42.664;23.266;2023-01-15T01:06:01;28.05;;;13.90;;
58878;SDS011;44660;42.664;23.266;2023-01-15T01:08:27;22.02;;;12.07;;
58878;SDS011;44660;42.664;23.266;2023-01-15T01:11:01;28.02;;;13.32;;
58878;SDS011;44660;42.664;23.266;2023-01-15T01:13:37;28.20;;;13.80;;
58878;SDS011;44660;42.664;23.266;2023-01-15T01:16:03;25.48;;;11.90;;
58878;SDS011;44660;42.664;23.266;2023-01-15T01:18:29;25.90;;;13.70;;
58878;SDS011;44660;42.664;23.266;2023-01-15T01:20:55;25.20;;;12.52;;
58878;SDS011;44660;42.664;23.266;2023-01-15T01:23:23;24.42;;;11.65;;
58878;SDS011;44660;42.664;23.266;2023-01-15T01:25:49;24.30;;;12.60;;
58878;SDS011;44660;42.664;23.266;2023-01-15T01:28:15;24.25;;;13.18;;
58878;SDS011;44660;42.664;23.266;2023-01-15T01:30:40;25.85;;;13.43;;
58878;SDS011;44660;42.664;23.266;2023-01-15T01:33:06;23.70;;;13.55;;
58878;SDS011;44660;42.664;23.266;2023-01-15T01:35:31;24.88;;;12.10;;
58878;SDS011;44660;42.664;23.266;2023-01-15T01:37:57;24.90;;;12.27;;
58878;SDS011;44660;42.664;23.266;2023-01-15T01:40:22;27.27;;;14.00;;
58878;SDS011;44660;42.664;23.266;2023-01-15T01:42:48;25.08;;;12.52;;
58878;SDS011;44660;42.664;23.266;2023-01-15T01:45:26;24.60;;;12.90;;
58878;SDS011;44660;42.664;23.266;2023-01-15T01:47:55;25.33;;;13.20;;
58878;SDS011;44660;42.664;23.266;2023-01-15T01:50:25;27.92;;;13.30;;
58878;SDS011;44660;42.664;23.266;2023-01-15T01:52:55;26.30;;;12.68;;
58878;SDS011;44660;42.664;23.266;2023-01-15T01:55:32;26.80;;;13.40;;
58878;SDS011;44660;42.664;23.266;2023-01-15T01:57:59;26.08;;;13.70;;
58878;SDS011;44660;42.664;23.266;2023-01-15T02:00:27;25.83;;;13.88;;
58878;SDS011;44660;42.664;23.266;2023-01-15T02:02:56;29.27;;;14.25;;
58878;SDS011;44660;42.664;23.266;2023-01-15T02:05:32;27.77;;;13.80;;
58878;SDS011;44660;42.664;23.266;2023-01-15T02:08:02;28.17;;;14.43;;
58878;SDS011;44660;42.664;23.266;2023-01-15T02:10:28;31.67;;;14.38;;
58878;SDS011;44660;42.664;23.266;2023-01-15T02:13:01;28.90;;;13.20;;
58878;SDS011;44660;42.664;23.266;2023-01-15T02:15:32;28.10;;;13.90;;
58878;SDS011;44660;42.664;23.266;2023-01-15T02:18:14;29.33;;;14.68;;
58878;SDS011;44660;42.664;23.266;2023-01-15T02:20:51;29.10;;;14.27;;
58878;SDS011;44660;42.664;23.266;2023-01-15T02:28:43;30.25;;;14.73;;
58878;SDS011;44660;42.664;23.266;2023-01-15T02:31:13;33.03;;;16.17;;
58878;SDS011;44660;42.664;23.266;2023-01-15T02:33:48;34.35;;;15.63;;
58878;SDS011;44660;42.664;23.266;2023-01-15T02:36:27;36.20;;;16.45;;
58878;SDS011;44660;42.664;23.266;2023-01-15T02:38:58;35.88;;;16.88;;
58878;SDS011;44660;42.664;23.266;2023-01-15T02:41:35;43.42;;;18.25;;
58878;SDS011;44660;42.664;23.266;2023-01-15T02:44:04;44.05;;;18.45;;
58878;SDS011;44660;42.664;23.266;2023-01-15T02:46:33;42.53;;;18.58;;
58878;SDS011;44660;42.664;23.266;2023-01-15T02:49:00;43.10;;;18.00;;
58878;SDS011;44660;42.664;23.266;2023-01-15T02:51:30;47.83;;;20.13;;
58878;SDS011;44660;42.664;23.266;2023-01-15T02:54:11;62.40;;;23.00;;
58878;SDS011;44660;42.664;23.266;2023-01-15T02:56:40;62.88;;;22.38;;
58878;SDS011;44660;42.664;23.266;2023-01-15T02:59:10;49.22;;;20.23;;
58878;SDS011;44660;42.664;23.266;2023-01-15T03:01:40;40.38;;;18.25;;
58878;SDS011;44660;42.664;23.266;2023-01-15T03:09:08;38.05;;;16.95;;
58878;SDS011;44660;42.664;23.266;2023-01-15T03:11:34;36.03;;;16.50;;
58878;SDS011;44660;42.664;23.266;2023-01-15T03:14:19;41.13;;;16.85;;
58878;SDS011;44660;42.664;23.266;2023-01-15T03:16:53;31.35;;;13.98;;
58878;SDS011;44660;42.664;23.266;2023-01-15T03:19:24;31.67;;;14.73;;
58878;SDS011;44660;42.664;23.266;2023-01-15T03:22:43;33.63;;;14.80;;
58878;SDS011;44660;42.664;23.266;2023-01-15T03:25:12;46.85;;;19.75;;
58878;SDS011;44660;42.664;23.266;2023-01-15T03:27:43;49.03;;;23.00;;
58878;SDS011;44660;42.664;23.266;2023-01-15T03:30:16;39.65;;;19.05;;
58878;SDS011;44660;42.664;23.266;2023-01-15T03:32:46;34.67;;;16.48;;
58878;SDS011;44660;42.664;23.266;2023-01-15T03:38:20;29.48;;;14.80;;
58878;SDS011;44660;42.664;23.266;2023-01-15T03:46:06;26.48;;;13.50;;
58878;SDS011;44660;42.664;23.266;2023-01-15T03:48:41;31.00;;;13.70;;
58878;SDS011;44660;42.664;23.266;2023-01-15T03:51:22;31.73;;;16.23;;
58878;SDS011;44660;42.664;23.266;2023-01-15T03:53:58;32.17;;;14.02;;
58878;SDS011;44660;42.664;23.266;2023-01-15T03:56:35;26.85;;;13.05;;
58878;SDS011;44660;42.664;23.266;2023-01-15T03:59:12;33.38;;;13.15;;
58878;SDS011;44660;42.664;23.266;2023-01-15T04:01:42;32.88;;;14.25;;
58878;SDS011;44660;42.664;23.266;2023-01-15T04:04:11;33.20;;;15.93;;
58878;SDS011;44660;42.664;23.266;2023-01-15T04:06:38;33.50;;;14.52;;
58878;SDS011;44660;42.664;23.266;2023-01-15T04:09:06;32.40;;;14.60;;
58878;SDS011;44660;42.664;23.266;2023-01-15T04:11:34;35.33;;;16.70;;
58878;SDS011;44660;42.664;23.266;2023-01-15T04:13:59;38.60;;;18.85;;
58878;SDS011;44660;42.664;23.266;2023-01-15T04:16:26;32.33;;;15.98;;
58878;SDS011;44660;42.664;23.266;2023-01-15T04:21:20;28.67;;;13.40;;
58878;SDS011;44660;42.664;23.266;2023-01-15T04:23:46;28.23;;;13.30;;
58878;SDS011;44660;42.664;23.266;2023-01-15T04:26:12;29.42;;;13.45;;
58878;SDS011;44660;42.664;23.266;2023-01-15T04:28:39;33.13;;;14.52;;
58878;SDS011;44660;42.664;23.266;2023-01-15T04:31:05;30.45;;;13.85;;
58878;SDS011;44660;42.664;23.266;2023-01-15T04:33:30;29.65;;;12.93;;
58878;SDS011;44660;42.664;23.266;2023-01-15T04:35:59;29.73;;;14.80;;
58878;SDS011;44660;42.664;23.266;2023-01-15T04:38:26;27.85;;;12.98;;
58878;SDS011;44660;42.664;23.266;2023-01-15T04:40:52;31.58;;;13.02;;
58878;SDS011;44660;42.664;23.266;2023-01-15T04:43:35;30.60;;;14.38;;
58878;SDS011;44660;42.664;23.266;2023-01-15T04:46:20;29.88;;;13.88;;
58878;SDS011;44660;42.664;23.266;2023-01-15T04:48:47;27.90;;;13.85;;
58878;SDS011;44660;42.664;23.266;2023-01-15T04:51:12;33.95;;;15.80;;
58878;SDS011;44660;42.664;23.266;2023-01-15T04:53:38;30.35;;;14.85;;
58878;SDS011;44660;42.664;23.266;2023-01-15T04:56:04;70.55;;;28.77;;
58878;SDS011;44660;42.664;23.266;2023-01-15T04:58:30;40.13;;;19.08;;
58878;SDS011;44660;42.664;23.266;2023-01-15T05:00:56;33.50;;;16.15;;
58878;SDS011;44660;42.664;23.266;2023-01-15T05:03:24;35.28;;;15.60;;
58878;SDS011;44660;42.664;23.266;2023-01-15T05:05:50;39.90;;;18.67;;
58878;SDS011;44660;42.664;23.266;2023-01-15T05:08:16;35.45;;;15.50;;
58878;SDS011;44660;42.664;23.266;2023-01-15T05:10:41;35.88;;;16.17;;
58878;SDS011;44660;42.664;23.266;2023-01-15T05:13:07;33.28;;;16.08;;
58878;SDS011;44660;42.664;23.266;2023-01-15T05:15:32;37.58;;;17.70;;
58878;SDS011;44660;42.664;23.266;2023-01-15T05:17:58;37.10;;;17.42;;
58878;SDS011;44660;42.664;23.266;2023-01-15T05:20:23;35.92;;;17.40;;
58878;SDS011;44660;42.664;23.266;2023-01-15T05:22:49;41.70;;;18.17;;
58878;SDS011;44660;42.664;23.266;2023-01-15T05:25:15;39.22;;;16.85;;
58878;SDS011;44660;42.664;23.266;2023-01-15T05:27:40;40.30;;;18.73;;
58878;SDS011;44660;42.664;23.266;2023-01-15T05:30:07;40.28;;;18.33;;
58878;SDS011;44660;42.664;23.266;2023-01-15T05:32:33;44.70;;;19.77;;
58878;SDS011;44660;42.664;23.266;2023-01-15T05:34:58;42.33;;;20.20;;
58878;SDS011;44660;42.664;23.266;2023-01-15T05:37:24;42.15;;;21.58;;
58878;SDS011;44660;42.664;23.266;2023-01-15T05:39:49;37.88;;;18.25;;
58878;SDS011;44660;42.664;23.266;2023-01-15T05:42:15;40.10;;;17.45;;
58878;SDS011;44660;42.664;23.266;2023-01-15T05:44:40;51.63;;;25.02;;
58878;SDS011;44660;42.664;23.266;2023-01-15T05:47:05;36.13;;;15.55;;
58878;SDS011;44660;42.664;23.266;2023-01-15T05:49:31;28.08;;;13.55;;
58878;SDS011;44660;42.664;23.266;2023-01-15T05:51:57;29.40;;;13.82;;
58878;SDS011;44660;42.664;23.266;2023-01-15T05:54:28;34.30;;;15.73;;
58878;SDS011;44660;42.664;23.266;2023-01-15T05:56:56;42.35;;;18.17;;
58878;SDS011;44660;42.664;23.266;2023-01-15T05:59:22;53.60;;;21.63;;
58878;SDS011;44660;42.664;23.266;2023-01-15T06:01:50;45.10;;;19.65;;
58878;SDS011;44660;42.664;23.266;2023-01-15T06:04:17;46.15;;;19.98;;
58878;SDS011;44660;42.664;23.266;2023-01-15T06:06:45;48.30;;;20.75;;
58878;SDS011;44660;42.664;23.266;2023-01-15T06:09:12;45.00;;;20.95;;
58878;SDS011;44660;42.664;23.266;2023-01-15T06:11:38;44.50;;;20.30;;
58878;SDS011;44660;42.664;23.266;2023-01-15T06:14:04;47.95;;;22.27;;
58878;SDS011;44660;42.664;23.266;2023-01-15T06:16:29;46.35;;;20.40;;
58878;SDS011;44660;42.664;23.266;2023-01-15T06:18:58;44.85;;;20.83;;
58878;SDS011;44660;42.664;23.266;2023-01-15T06:21:29;55.25;;;23.13;;
58878;SDS011;44660;42.664;23.266;2023-01-15T06:23:55;55.13;;;23.65;;
58878;SDS011;44660;42.664;23.266;2023-01-15T06:26:21;44.45;;;21.25;;
58878;SDS011;44660;42.664;23.266;2023-01-15T06:28:52;49.95;;;22.38;;
58878;SDS011;44660;42.664;23.266;2023-01-15T06:31:19;55.42;;;24.85;;
58878;SDS011;44660;42.664;23.266;2023-01-15T06:33:45;52.17;;;25.05;;
58878;SDS011;44660;42.664;23.266;2023-01-15T06:36:15;43.55;;;23.38;;
58878;SDS011;44660;42.664;23.266;2023-01-15T06:38:42;50.75;;;24.83;;
58878;SDS011;44660;42.664;23.266;2023-01-15T06:41:13;42.03;;;19.77;;
58878;SDS011;44660;42.664;23.266;2023-01-15T06:43:58;48.45;;;24.98;;
58878;SDS011;44660;42.664;23.266;2023-01-15T06:46:43;47.38;;;23.10;;
58878;SDS011;44660;42.664;23.266;2023-01-15T06:49:29;48.90;;;24.85;;
58878;SDS011;44660;42.664;23.266;2023-01-15T06:51:56;88.25;;;43.17;;
58878;SDS011;44660;42.664;23.266;2023-01-15T06:54:21;65.55;;;32.80;;
58878;SDS011;44660;42.664;23.266;2023-01-15T06:56:47;54.20;;;26.75;;
58878;SDS011;44660;42.664;23.266;2023-01-15T06:59:12;45.47;;;23.50;;
58878;SDS011;44660;42.664;23.266;2023-01-15T07:01:38;41.92;;;21.58;;
58878;SDS011;44660;42.664;23.266;2023-01-15T07:04:03;39.88;;;20.67;;
58878;SDS011;44660;42.664;23.266;2023-01-15T07:06:29;45.03;;;22.48;;
58878;SDS011;44660;42.664;23.266;2023-01-15T07:08:55;44.00;;;22.63;;
58878;SDS011;44660;42.664;23.266;2023-01-15T07:11:20;43.33;;;22.13;;
58878;SDS011;44660;42.664;23.266;2023-01-15T07:13:46;44.95;;;22.55;;
58878;SDS011;44660;42.664;23.266;2023-01-15T07:16:13;195.90;;;58.33;;
58878;SDS011;44660;42.664;23.266;2023-01-15T07:18:54;253.02;;;71.38;;
58878;SDS011;44660;42.664;23.266;2023-01-15T07:21:20;172.93;;;54.65;;
58878;SDS011;44660;42.664;23.266;2023-01-15T07:23:46;77.55;;;32.58;;
58878;SDS011;44660;42.664;23.266;2023-01-15T07:26:12;48.30;;;23.70;;
58878;SDS011;44660;42.664;23.266;2023-01-15T07:28:38;44.35;;;23.38;;
58878;SDS011;44660;42.664;23.266;2023-01-15T07:31:04;43.60;;;22.83;;
58878;SDS011;44660;42.664;23.266;2023-01-15T07:33:30;41.55;;;22.30;;
58878;SDS011;44660;42.664;23.266;2023-01-15T07:35:55;38.90;;;22.30;;
58878;SDS011;44660;42.664;23.266;2023-01-15T07:38:21;35.92;;;20.38;;
58878;SDS011;44660;42.664;23.266;2023-01-15T07:40:47;36.42;;;20.02;;
58878;SDS011;44660;42.664;23.266;2023-01-15T07:43:36;34.08;;;18.95;;
58878;SDS011;44660;42.664;23.266;2023-01-15T07:46:19;33.28;;;18.60;;
58878;SDS011;44660;42.664;23.266;2023-01-15T07:49:07;31.63;;;16.27;;
58878;SDS011;44660;42.664;23.266;2023-01-15T07:51:52;31.00;;;15.27;;
58878;SDS011;44660;42.664;23.266;2023-01-15T07:54:17;26.77;;;14.77;;
58878;SDS011;44660;42.664;23.266;2023-01-15T07:56:43;26.17;;;12.90;;
58878;SDS011;44660;42.664;23.266;2023-01-15T07:59:08;22.08;;;12.18;;
58878;SDS011;44660;42.664;23.266;2023-01-15T08:01:34;19.30;;;11.20;;
58878;SDS011;44660;42.664;23.266;2023-01-15T08:03:59;20.80;;;11.38;;
58878;SDS011;44660;42.664;23.266;2023-01-15T08:06:24;19.52;;;10.35;;
58878;SDS011;44660;42.664;23.266;2023-01-15T08:08:50;14.07;;;7.47;;
58878;SDS011;44660;42.664;23.266;2023-01-15T08:11:15;14.45;;;8.82;;
58878;SDS011;44660;42.664;23.266;2023-01-15T08:13:59;16.52;;;8.75;;
58878;SDS011;44660;42.664;23.266;2023-01-15T08:16:44;25.65;;;15.05;;
58878;SDS011;44660;42.664;23.266;2023-01-15T08:19:09;52.85;;;27.83;;
58878;SDS011;44660;42.664;23.266;2023-01-15T08:21:35;21.33;;;13.00;;
58878;SDS011;44660;42.664;23.266;2023-01-15T08:24:00;14.18;;;9.35;;
58878;SDS011;44660;42.664;23.266;2023-01-15T08:26:25;14.98;;;9.70;;
58878;SDS011;44660;42.664;23.266;2023-01-15T08:28:51;16.05;;;9.60;;
58878;SDS011;44660;42.664;23.266;2023-01-15T08:31:17;16.05;;;10.38;;
58878;SDS011;44660;42.664;23.266;2023-01-15T08:33:42;16.52;;;10.90;;
58878;SDS011;44660;42.664;23.266;2023-01-15T08:36:08;15.18;;;10.73;;
58878;SDS011;44660;42.664;23.266;2023-01-15T08:38:33;14.65;;;9.82;;
58878;SDS011;44660;42.664;23.266;2023-01-15T08:40:58;13.32;;;9.55;;
58878;SDS011;44660;42.664;23.266;2023-01-15T08:43:27;13.02;;;8.85;;
58878;SDS011;44660;42.664;23.266;2023-01-15T08:45:55;12.07;;;8.27;;
58878;SDS011;44660;42.664;23.266;2023-01-15T08:48:22;13.60;;;9.18;;
58878;SDS011;44660;42.664;23.266;2023-01-15T08:50:48;17.02;;;11.93;;
58878;SDS011;44660;42.664;23.266;2023-01-15T08:53:14;15.60;;;11.13;;
58878;SDS011;44660;42.664;23.266;2023-01-15T08:55:40;13.93;;;9.57;;
58878;SDS011;44660;42.664;23.266;2023-01-15T08:58:06;14.38;;;9.65;;
58878;SDS011;44660;42.664;23.266;2023-01-15T09:00:31;13.95;;;9.48;;
58878;SDS011;44660;42.664;23.266;2023-01-15T09:02:57;16.42;;;11.05;;
58878;SDS011;44660;42.664;23.266;2023-01-15T09:05:22;18.33;;;10.45;;
58878;SDS011;44660;42.664;23.266;2023-01-15T09:07:48;18.48;;;11.10;;
58878;SDS011;44660;42.664;23.266;2023-01-15T09:10:14;17.00;;;11.45;;
58878;SDS011;44660;42.664;23.266;2023-01-15T09:12:40;20.65;;;13.27;;
58878;SDS011;44660;42.664;23.266;2023-01-15T09:15:06;22.42;;;11.90;;
58878;SDS011;44660;42.664;23.266;2023-01-15T09:17:32;14.05;;;9.88;;
58878;SDS011;44660;42.664;23.266;2023-01-15T09:19:58;18.40;;;12.38;;
58878;SDS011;44660;42.664;23.266;2023-01-15T09:22:23;17.63;;;9.70;;
58878;SDS011;44660;42.664;23.266;2023-01-15T09:24:53;27.33;;;14.93;;
58878;SDS011;44660;42.664;23.266;2023-01-15T09:27:19;21.60;;;11.77;;
58878;SDS011;44660;42.664;23.266;2023-01-15T09:29:44;14.50;;;9.15;;
58878;SDS011;44660;42.664;23.266;2023-01-15T09:32:10;12.23;;;8.18;;
58878;SDS011;44660;42.664;23.266;2023-01-15T09:34:35;17.92;;;11.15;;
58878;SDS011;44660;42.664;23.266;2023-01-15T09:37:01;14.80;;;10.02;;
58878;SDS011;44660;42.664;23.266;2023-01-15T09:39:26;17.23;;;9.30;;
58878;SDS011;44660;42.664;23.266;2023-01-15T09:45:09;22.35;;;13.50;;
58878;SDS011;44660;42.664;23.266;2023-01-15T09:56:18;16.48;;;9.98;;
58878;SDS011;44660;42.664;23.266;2023-01-15T09:58:46;18.15;;;9.90;;
58878;SDS011;44660;42.664;23.266;2023-01-15T10:01:32;18.98;;;9.93;;
58878;SDS011;44660;42.664;23.266;2023-01-15T10:08:58;16.52;;;10.27;;
58878;SDS011;44660;42.664;23.266;2023-01-15T10:11:33;20.13;;;10.85;;
58878;SDS011;44660;42.664;23.266;2023-01-15T10:14:33;18.98;;;10.77;;
58878;SDS011;44660;42.664;23.266;2023-01-15T10:17:05;18.05;;;10.02;;
58878;SDS011;44660;42.664;23.266;2023-01-15T10:19:40;22.30;;;12.05;;
58878;SDS011;44660;42.664;23.266;2023-01-15T10:22:11;18.45;;;10.20;;
58878;SDS011;44660;42.664;23.266;2023-01-15T10:24:55;19.85;;;10.80;;
58878;SDS011;44660;42.664;23.266;2023-01-15T10:27:22;22.42;;;11.57;;
58878;SDS011;44660;42.664;23.266;2023-01-15T10:32:45;21.10;;;11.32;;
58878;SDS011;44660;42.664;23.266;2023-01-15T10:40:24;22.23;;;11.50;;
58878;SDS011;44660;42.664;23.266;2023-01-15T10:48:13;28.15;;;14.60;;
58878;SDS011;44660;42.664;23.266;2023-01-15T10:50:45;26.33;;;13.25;;
58878;SDS011;44660;42.664;23.266;2023-01-15T10:53:29;26.05;;;12.80;;
58878;SDS011;44660;42.664;23.266;2023-01-15T10:56:00;23.83;;;12.35;;
58878;SDS011;44660;42.664;23.266;2023-01-15T11:01:34;22.83;;;12.88;;
58878;SDS011;44660;42.664;23.266;2023-01-15T11:04:02;24.88;;;12.30;;
58878;SDS011;44660;42.664;23.266;2023-01-15T11:06:29;19.33;;;11.73;;
58878;SDS011;44660;42.664;23.266;2023-01-15T11:08:57;20.08;;;11.02;;
58878;SDS011;44660;42.664;23.266;2023-01-15T11:17:31;26.38;;;13.77;;
58878;SDS011;44660;42.664;23.266;2023-01-15T11:22:51;24.75;;;12.57;;
58878;SDS011;44660;42.664;23.266;2023-01-15T11:25:29;22.35;;;10.70;;
58878;SDS011;44660;42.664;23.266;2023-01-15T11:27:56;20.33;;;11.23;;
58878;SDS011;44660;42.664;23.266;2023-01-15T11:30:25;23.88;;;12.38;;
58878;SDS011;44660;42.664;23.266;2023-01-15T11:33:04;21.35;;;11.52;;
58878;SDS011;44660;42.664;23.266;2023-01-15T11:35:31;22.30;;;12.25;;
58878;SDS011;44660;42.664;23.266;2023-01-15T11:40:31;21.55;;;11.80;;
58878;SDS011;44660;42.664;23.266;2023-01-15T11:42:56;20.90;;;11.68;;
58878;SDS011;44660;42.664;23.266;2023-01-15T11:45:47;24.27;;;12.50;;
58878;SDS011;44660;42.664;23.266;2023-01-15T11:48:42;20.98;;;11.73;;
58878;SDS011;44660;42.664;23.266;2023-01-15T11:51:27;21.55;;;11.90;;
58878;SDS011;44660;42.664;23.266;2023-01-15T11:53:56;32.00;;;19.02;;
58878;SDS011;44660;42.664;23.266;2023-01-15T11:56:26;22.52;;;12.48;;
58878;SDS011;44660;42.664;23.266;2023-01-15T11:58:54;23.73;;;13.10;;
58878;SDS011;44660;42.664;23.266;2023-01-15T12:01:29;26.05;;;14.07;;
58878;SDS011;44660;42.664;23.266;2023-01-15T12:03:56;22.50;;;11.15;;
58878;SDS011;44660;42.664;23.266;2023-01-15T12:06:23;21.23;;;11.35;;
58878;SDS011;44660;42.664;23.266;2023-01-15T12:08:51;19.83;;;11.18;;
58878;SDS011;44660;42.664;23.266;2023-01-15T12:30:52;18.90;;;10.27;;
58878;SDS011;44660;42.664;23.266;2023-01-15T12:36:20;19.05;;;10.30;;
58878;SDS011;44660;42.664;23.266;2023-01-15T12:41:24;19.35;;;10.13;;
58878;SDS011;44660;42.664;23.266;2023-01-15T12:44:14;15.70;;;9.63;;
58878;SDS011;44660;42.664;23.266;2023-01-15T12:47:04;15.02;;;9.25;;
58878;SDS011;44660;42.664;23.266;2023-01-15T12:49:35;13.93;;;8.65;;
58878;SDS011;44660;42.664;23.266;2023-01-15T12:52:09;14.18;;;8.68;;
58878;SDS011;44660;42.664;23.266;2023-01-15T12:54:39;24.80;;;12.85;;
58878;SDS011;44660;42.664;23.266;2023-01-15T12:57:17;21.35;;;11.13;;
58878;SDS011;44660;42.664;23.266;2023-01-15T12:59:54;20.58;;;11.48;;
58878;SDS011;44660;42.664;23.266;2023-01-15T13:02:28;18.35;;;10.00;;
58878;SDS011;44660;42.664;23.266;2023-01-15T13:05:22;18.65;;;11.48;;
58878;SDS011;44660;42.664;23.266;2023-01-15T13:10:54;14.48;;;9.55;;
58878;SDS011;44660;42.664;23.266;2023-01-15T13:13:21;15.07;;;10.30;;
58878;SDS011;44660;42.664;23.266;2023-01-15T13:16:18;17.13;;;10.35;;
58878;SDS011;44660;42.664;23.266;2023-01-15T13:21:51;19.08;;;12.45;;
58878;SDS011;44660;42.664;23.266;2023-01-15T13:29:38;17.02;;;10.32;;
58878;SDS011;44660;42.664;23.266;2023-01-15T13:35:26;15.77;;;8.97;;
58878;SDS011;44660;42.664;23.266;2023-01-15T13:37:44;17.65;;;10.25;;
58878;SDS011;44660;42.664;23.266;2023-01-15T13:42:52;12.73;;;8.43;;
58878;SDS011;44660;42.664;23.266;2023-01-15T13:46:01;10.65;;;7.13;;
58878;SDS011;44660;42.664;23.266;2023-01-15T13:48:15;12.82;;;8.40;;
58878;SDS011;44660;42.664;23.266;2023-01-15T13:53:31;11.70;;;7.55;;
58878;SDS011;44660;42.664;23.266;2023-01-15T14:06:36;21.42;;;11.13;;
58878;SDS011;44660;42.664;23.266;2023-01-15T14:09:30;29.92;;;18.25;;
58878;SDS011;44660;42.664;23.266;2023-01-15T14:17:58;36.63;;;20.00;;
58878;SDS011;44660;42.664;23.266;2023-01-15T14:23:33;22.38;;;11.80;;
58878;SDS011;44660;42.664;23.266;2023-01-15T14:29:40;23.45;;;12.27;;
58878;SDS011;44660;42.664;23.266;2023-01-15T14:32:29;20.52;;;12.02;;
58878;SDS011;44660;42.664;23.266;2023-01-15T14:34:58;21.52;;;11.73;;
58878;SDS011;44660;42.664;23.266;2023-01-15T14:37:35;23.00;;;12.73;;
58878;SDS011;44660;42.664;23.266;2023-01-15T14:40:25;23.45;;;12.68;;
58878;SDS011;44660;42.664;23.266;2023-01-15T14:42:54;23.95;;;11.63;;
58878;SDS011;44660;42.664;23.266;2023-01-15T14:45:26;17.73;;;10.73;;
58878;SDS011;44660;42.664;23.266;2023-01-15T14:47:58;19.13;;;10.15;;
58878;SDS011;44660;42.664;23.266;2023-01-15T14:50:30;19.00;;;11.27;;
58878;SDS011;44660;42.664;23.266;2023-01-15T14:53:26;17.40;;;9.68;;
58878;SDS011;44660;42.664;23.266;2023-01-15T14:58:39;16.88;;;9.43;;
58878;SDS011;44660;42.664;23.266;2023-01-15T15:07:21;22.50;;;12.40;;
58878;SDS011;44660;42.664;23.266;2023-01-15T15:09:52;20.42;;;11.52;;
58878;SDS011;44660;42.664;23.266;2023-01-15T15:12:27;20.65;;;12.85;;
58878;SDS011;44660;42.664;23.266;2023-01-15T15:18:35;21.23;;;12.30;;
58878;SDS011;44660;42.664;23.266;2023-01-15T15:20:58;21.10;;;12.40;;
58878;SDS011;44660;42.664;23.266;2023-01-15T15:26:14;26.35;;;13.18;;
58878;SDS011;44660;42.664;23.266;2023-01-15T15:31:33;29.50;;;15.27;;
58878;SDS011;44660;42.664;23.266;2023-01-15T15:34:01;57.53;;;28.05;;
58878;SDS011;44660;42.664;23.266;2023-01-15T15:36:28;106.35;;;52.72;;
58878;SDS011;44660;42.664;23.266;2023-01-15T15:39:00;46.95;;;25.38;;
58878;SDS011;44660;42.664;23.266;2023-01-15T15:41:31;43.35;;;21.27;;
58878;SDS011;44660;42.664;23.266;2023-01-15T15:44:33;69.63;;;31.15;;
58878;SDS011;44660;42.664;23.266;2023-01-15T15:47:24;60.90;;;27.65;;
58878;SDS011;44660;42.664;23.266;2023-01-15T15:50:22;49.95;;;25.98;;
58878;SDS011;44660;42.664;23.266;2023-01-15T15:52:50;71.60;;;36.17;;
58878;SDS011;44660;42.664;23.266;2023-01-15T15:55:16;49.35;;;27.23;;
58878;SDS011;44660;42.664;23.266;2023-01-15T15:57:44;47.45;;;26.20;;
58878;SDS011;44660;42.664;23.266;2023-01-15T16:02:43;88.18;;;42.95;;
58878;SDS011;44660;42.664;23.266;2023-01-15T16:07:48;59.22;;;32.00;;
58878;SDS011;44660;42.664;23.266;2023-01-15T16:12:51;56.58;;;34.10;;
58878;SDS011;44660;42.664;23.266;2023-01-15T16:17:50;47.55;;;27.33;;
58878;SDS011;44660;42.664;23.266;2023-01-15T16:20:17;51.55;;;30.27;;
58878;SDS011;44660;42.664;23.266;2023-01-15T16:22:50;108.18;;;53.45;;
58878;SDS011;44660;42.664;23.266;2023-01-15T16:25:25;49.20;;;28.05;;
58878;SDS011;44660;42.664;23.266;2023-01-15T16:27:55;59.63;;;30.83;;
58878;SDS011;44660;42.664;23.266;2023-01-15T16:30:21;58.30;;;29.48;;
58878;SDS011;44660;42.664;23.266;2023-01-15T16:32:46;96.20;;;46.97;;
58878;SDS011;44660;42.664;23.266;2023-01-15T16:35:23;91.88;;;44.75;;
58878;SDS011;44660;42.664;23.266;2023-01-15T16:37:50;70.00;;;38.22;;
58878;SDS011;44660;42.664;23.266;2023-01-15T16:40:25;68.43;;;35.53;;
58878;SDS011;44660;42.664;23.266;2023-01-15T16:43:14;65.15;;;33.85;;
58878;SDS011;44660;42.664;23.266;2023-01-15T16:50:58;69.10;;;34.42;;
58878;SDS011;44660;42.664;23.266;2023-01-15T16:53:52;67.60;;;34.67;;
58878;SDS011;44660;42.664;23.266;2023-01-15T16:56:52;68.65;;;37.00;;
58878;SDS011;44660;42.664;23.266;2023-01-15T16:59:15;76.40;;;37.20;;
58878;SDS011;44660;42.664;23.266;2023-01-15T17:01:45;76.32;;;37.28;;
58878;SDS011;44660;42.664;23.266;2023-01-15T17:04:26;72.10;;;38.08;;
58878;SDS011;44660;42.664;23.266;2023-01-15T17:06:56;71.60;;;38.10;;
58878;SDS011;44660;42.664;23.266;2023-01-15T17:09:24;67.35;;;35.20;;
58878;SDS011;44660;42.664;23.266;2023-01-15T17:11:50;65.95;;;35.08;;
58878;SDS011;44660;42.664;23.266;2023-01-15T17:14:19;64.05;;;33.45;;
58878;SDS011;44660;42.664;23.266;2023-01-15T17:19:51;65.07;;;33.60;;
58878;SDS011;44660;42.664;23.266;2023-01-15T17:22:25;61.60;;;34.33;;